Strona główna
METAR-TAF:

METAR-TAF

Lotnisko :

Kadena, Japonia

Szerokość geograficzna: 26-21N, Długość geograficzna: 127-46E, wysokość: 45 m

Aktualna obserwacja pogody

Raport powstał 47 minut temu, godzina 10:56 UTC
Cisza
Temperatura 13°C
Wilgotność 67%
Ciśnienie 1026 hPa
Widzialność: 16.1 km
bezchmurnie

METAR: RODN 191056Z AUTO 00000KT 10SM CLR 13/07 A3029 RMK AO2 SLP265 T01330069 FZRANO $

czas: 20:43 (11:43 UTC)

Prognoza

Raport powstał 3 godziny i 43 minut temu, godzina 08:00 UTC
Prognoza ważna od 19 godzina 08 UTC do 20 godzina 14 UTC
Wiatr 6 kt od północny wschód
Widzialność 10 km lub więcej
Mało chmury na wysokości 4000 ft
Rozproszone chmury na wysokości 7000 ft
Stopniowe zmiany
od 20 godzina 11 UTC do 20 godzina 12 UTC
Wiatr 12 kt od północny wschód
Widzialność 10 km lub więcej
Przerywane chmury na wysokości 4000 ft

TAF: RODN 190800Z 1908/2014 04006KT 9999 FEW040 SCT070 QNH3022INS BECMG 2011/2012 04012KT 9999 BKN040 QNH3039INS TX21/2006Z TN17/1920Z

Obserwacja i prognoza pogody dla ponad 4000 lotnisk (raport METAR i TAF).

Dostępne stacje oznaczono żółtymi i czerwonymi punktami na mapie.

Najedź kursorem aby zobaczyć nazwę stacji.

Kliknij aby zobaczyć obserwacje i prognozy pogody.

Aby zmienić mapę: kliknij na zielony przycisk z czarnym krzyżykiem, aby powiększyć; na zielony przycisk z myślnikiem, aby pomniejszyć; na zielone strzałki, aby przejść do map sąsiednich.


METAR-TAF: